createdAt,value
2018-12-31T00:00:42.969Z,11.57
2018-12-31T00:03:11.834Z,10.40
2018-12-31T00:08:18.990Z,12.33
2018-12-31T00:10:47.883Z,10.40
2018-12-31T00:13:17.051Z,9.13
2018-12-31T00:15:45.922Z,9.40
2018-12-31T00:18:14.780Z,10.40
2018-12-31T00:20:44.031Z,9.60
2018-12-31T00:23:12.895Z,10.57
2018-12-31T00:25:41.755Z,11.10
2018-12-31T00:28:10.627Z,9.03
2018-12-31T00:30:39.496Z,11.70
2018-12-31T00:33:08.331Z,11.40
2018-12-31T00:35:37.194Z,10.83
2018-12-31T00:38:06.118Z,10.77
2018-12-31T00:40:35.335Z,13.10
2018-12-31T00:43:04.191Z,10.90
2018-12-31T00:45:33.056Z,11.23
2018-12-31T00:48:02.204Z,11.53
2018-12-31T00:50:31.731Z,12.13
2018-12-31T00:53:00.574Z,13.10
2018-12-31T00:55:29.794Z,11.73
2018-12-31T00:57:58.990Z,12.47
2018-12-31T01:00:28.189Z,13.33
2018-12-31T01:02:57.305Z,12.00
2018-12-31T01:05:26.436Z,12.57
2018-12-31T01:07:55.273Z,14.20
2018-12-31T01:10:24.419Z,13.17
2018-12-31T01:12:53.312Z,13.20
2018-12-31T01:15:22.191Z,12.77
2018-12-31T01:17:51.432Z,12.93
2018-12-31T01:20:20.325Z,12.63
2018-12-31T01:22:49.232Z,12.80
2018-12-31T01:25:18.136Z,14.47
2018-12-31T01:27:47.294Z,16.47
2018-12-31T01:30:16.487Z,14.10
2018-12-31T01:32:45.337Z,13.03
2018-12-31T01:35:14.397Z,13.53
2018-12-31T01:37:43.255Z,12.93
2018-12-31T01:40:12.113Z,13.50
2018-12-31T01:42:41.284Z,13.23
2018-12-31T01:45:10.131Z,14.10
2018-12-31T01:47:39.324Z,13.03
2018-12-31T01:50:08.165Z,14.07
2018-12-31T01:52:37.332Z,13.50
2018-12-31T01:55:06.508Z,13.43
2018-12-31T01:57:35.700Z,13.13
2018-12-31T02:00:04.801Z,15.17
2018-12-31T02:02:33.631Z,13.83
2018-12-31T02:05:02.500Z,12.43
2018-12-31T02:07:31.666Z,12.23
2018-12-31T02:10:00.508Z,14.73
2018-12-31T02:12:29.321Z,12.33
2018-12-31T02:14:58.160Z,12.27
2018-12-31T02:17:26.991Z,13.47
2018-12-31T02:19:56.128Z,12.47
2018-12-31T02:22:25.301Z,13.27
2018-12-31T02:24:54.553Z,12.20
2018-12-31T02:27:23.991Z,11.50
2018-12-31T02:29:52.856Z,13.67
2018-12-31T02:32:22.173Z,11.17
2018-12-31T02:34:51.377Z,11.20
2018-12-31T02:37:20.522Z,11.73
2018-12-31T02:39:50.083Z,11.90
2018-12-31T02:42:19.015Z,11.03
2018-12-31T02:44:48.270Z,11.43
2018-12-31T02:47:17.491Z,11.50
2018-12-31T02:49:46.359Z,11.10
2018-12-31T02:52:19.648Z,11.67
2018-12-31T02:54:50.572Z,10.73
2018-12-31T02:57:19.732Z,10.97
2018-12-31T02:59:48.600Z,12.70
2018-12-31T03:02:17.459Z,10.23
2018-12-31T03:04:46.312Z,10.40
2018-12-31T03:07:15.542Z,10.63
2018-12-31T03:09:44.400Z,9.43
2018-12-31T03:12:13.616Z,11.07
2018-12-31T03:14:42.491Z,12.43
2018-12-31T03:17:11.369Z,11.73
2018-12-31T03:19:40.233Z,12.47
2018-12-31T03:22:09.103Z,10.80
2018-12-31T03:24:38.014Z,10.13
2018-12-31T03:27:06.952Z,11.30
2018-12-31T03:29:35.795Z,9.77
2018-12-31T03:32:04.685Z,11.13
2018-12-31T03:34:33.525Z,10.93
2018-12-31T03:37:02.396Z,12.73
2018-12-31T03:39:31.633Z,10.80
2018-12-31T03:42:00.806Z,12.13
2018-12-31T03:44:30.014Z,11.23
2018-12-31T03:46:58.865Z,10.00
2018-12-31T03:49:28.098Z,10.60
2018-12-31T03:51:56.983Z,10.53
2018-12-31T03:54:25.840Z,11.40
2018-12-31T03:56:54.722Z,11.63
2018-12-31T03:59:23.587Z,12.60
2018-12-31T04:01:52.488Z,11.70
2018-12-31T04:04:21.326Z,10.00
2018-12-31T04:06:50.225Z,10.17
2018-12-31T04:09:19.079Z,11.53
2018-12-31T04:11:47.931Z,11.53
2018-12-31T04:14:17.179Z,12.00
2018-12-31T04:16:46.377Z,10.67
2018-12-31T04:19:15.230Z,11.00
2018-12-31T04:21:44.128Z,11.30
2018-12-31T04:24:12.989Z,12.10
2018-12-31T04:26:42.233Z,12.63
2018-12-31T04:29:11.641Z,10.37
2018-12-31T04:31:40.532Z,11.83
2018-12-31T04:34:09.721Z,13.97
2018-12-31T04:36:38.999Z,11.60
2018-12-31T04:39:07.785Z,12.40
2018-12-31T04:41:36.615Z,12.33
2018-12-31T04:44:05.484Z,12.67
2018-12-31T04:46:34.679Z,13.43
2018-12-31T04:49:03.532Z,13.17
2018-12-31T04:51:32.401Z,16.00
2018-12-31T04:54:01.574Z,14.10
2018-12-31T04:56:30.686Z,17.80
2018-12-31T04:59:00.116Z,13.73
2018-12-31T05:01:28.982Z,16.47
2018-12-31T05:03:58.165Z,16.77
2018-12-31T05:06:27.391Z,16.67
2018-12-31T05:08:56.245Z,16.40
2018-12-31T05:11:25.400Z,16.73
2018-12-31T05:13:54.531Z,15.97
2018-12-31T05:16:23.526Z,19.13
2018-12-31T05:18:52.692Z,17.97
2018-12-31T05:21:21.545Z,16.80
2018-12-31T05:23:50.427Z,16.93
2018-12-31T05:26:19.302Z,20.97
2018-12-31T05:28:48.148Z,16.70
2018-12-31T05:31:17.039Z,18.83
2018-12-31T05:33:45.896Z,17.73
2018-12-31T05:36:14.791Z,22.50
2018-12-31T05:38:44.304Z,22.23
2018-12-31T05:41:13.513Z,18.73
2018-12-31T05:43:42.353Z,20.97
2018-12-31T05:46:11.594Z,20.57
2018-12-31T05:48:40.800Z,21.30
2018-12-31T05:51:09.682Z,20.33
2018-12-31T05:53:39.174Z,20.80
2018-12-31T05:56:08.015Z,17.17
2018-12-31T05:58:37.281Z,20.57
2018-12-31T06:01:06.120Z,19.63
2018-12-31T06:03:35.027Z,20.07
2018-12-31T06:06:03.908Z,22.20
2018-12-31T06:08:32.779Z,18.90
2018-12-31T06:11:02.379Z,19.43
2018-12-31T06:13:30.802Z,19.30
2018-12-31T06:15:59.934Z,19.63
2018-12-31T06:18:29.091Z,18.90
2018-12-31T06:20:57.962Z,20.80
2018-12-31T06:23:27.181Z,17.77
2018-12-31T06:25:56.042Z,20.37
2018-12-31T06:28:24.935Z,16.37
2018-12-31T06:30:54.052Z,16.73
2018-12-31T06:33:23.251Z,18.03
2018-12-31T06:35:52.107Z,16.83
2018-12-31T06:38:21.527Z,17.30
2018-12-31T06:40:50.375Z,17.13
2018-12-31T06:43:19.494Z,19.10
2018-12-31T06:45:48.386Z,19.73
2018-12-31T06:48:17.252Z,18.07
2018-12-31T06:50:46.104Z,16.63
2018-12-31T06:53:15.269Z,17.73
2018-12-31T06:55:44.139Z,17.03
2018-12-31T06:58:13.353Z,17.40
2018-12-31T07:00:42.221Z,18.50
2018-12-31T07:03:11.085Z,14.53
2018-12-31T07:05:40.333Z,15.93
2018-12-31T07:08:09.477Z,18.07
2018-12-31T07:10:38.341Z,18.57
2018-12-31T07:13:07.210Z,15.67
2018-12-31T07:15:36.396Z,15.20
2018-12-31T07:18:05.264Z,12.03
2018-12-31T07:20:34.139Z,15.87
2018-12-31T07:23:03.151Z,16.97
2018-12-31T07:25:32.363Z,15.50
2018-12-31T07:28:01.657Z,13.43
2018-12-31T07:30:30.820Z,13.60
2018-12-31T07:32:59.765Z,11.87
2018-12-31T07:35:28.940Z,10.77
2018-12-31T07:37:58.238Z,11.00
2018-12-31T07:40:27.098Z,12.10
2018-12-31T07:42:56.361Z,11.60
2018-12-31T07:45:25.528Z,12.23
2018-12-31T07:47:54.720Z,10.47
2018-12-31T07:50:23.566Z,10.00
2018-12-31T07:52:52.451Z,9.73
2018-12-31T07:55:21.384Z,9.23
2018-12-31T07:57:50.515Z,9.37
2018-12-31T08:00:19.390Z,9.40
2018-12-31T08:02:48.272Z,12.50
2018-12-31T08:05:17.119Z,9.63
2018-12-31T08:07:46.340Z,9.67
2018-12-31T08:10:15.525Z,9.07
2018-12-31T08:12:44.404Z,10.53
2018-12-31T08:15:13.266Z,8.43
2018-12-31T08:17:42.535Z,8.97
2018-12-31T08:20:11.691Z,9.57
2018-12-31T08:22:40.955Z,7.30
2018-12-31T08:25:11.217Z,7.30
2018-12-31T08:27:40.832Z,7.07
2018-12-31T08:30:09.697Z,8.10
2018-12-31T08:32:38.912Z,10.63
2018-12-31T08:35:08.112Z,7.50
2018-12-31T08:37:37.324Z,7.77
2018-12-31T08:40:06.497Z,6.97
2018-12-31T08:42:35.694Z,8.60
2018-12-31T08:45:04.996Z,9.30
2018-12-31T08:47:33.889Z,9.20
2018-12-31T08:50:03.429Z,8.90
2018-12-31T08:52:31.742Z,9.47
2018-12-31T08:55:00.912Z,9.07
2018-12-31T08:57:29.856Z,9.43
2018-12-31T08:59:58.713Z,8.03
2018-12-31T09:02:27.929Z,10.90
2018-12-31T09:04:56.948Z,7.43
2018-12-31T09:07:25.809Z,18.50
2018-12-31T09:09:55.055Z,14.57
2018-12-31T09:12:24.306Z,10.20
2018-12-31T09:14:53.532Z,10.20
2018-12-31T09:17:22.531Z,10.20
2018-12-31T09:19:51.743Z,10.33
2018-12-31T09:22:20.995Z,9.50
2018-12-31T09:24:50.191Z,8.93
2018-12-31T09:27:19.061Z,12.07
2018-12-31T09:29:47.918Z,7.03
2018-12-31T09:32:16.776Z,8.97
2018-12-31T09:34:45.660Z,10.33
2018-12-31T09:37:14.529Z,8.63
2018-12-31T09:39:43.722Z,13.87
2018-12-31T09:42:13.128Z,8.33
2018-12-31T09:44:42.451Z,9.03
2018-12-31T09:47:11.705Z,7.97
2018-12-31T09:49:40.643Z,7.23
2018-12-31T09:52:09.507Z,6.87
2018-12-31T09:54:38.472Z,6.73
2018-12-31T09:57:08.118Z,5.97
2018-12-31T09:59:36.989Z,5.97
2018-12-31T10:02:06.039Z,6.40
2018-12-31T10:04:35.179Z,5.80
2018-12-31T10:07:04.398Z,4.80
2018-12-31T10:09:33.863Z,4.27
2018-12-31T10:12:03.078Z,3.37
2018-12-31T10:14:32.037Z,4.00
2018-12-31T10:17:01.182Z,3.13
2018-12-31T10:19:30.165Z,2.50
2018-12-31T10:21:59.167Z,2.43
2018-12-31T10:24:28.638Z,4.80
2018-12-31T10:26:57.835Z,3.07
2018-12-31T10:29:26.730Z,2.73
2018-12-31T10:31:56.216Z,2.07
2018-12-31T10:34:25.068Z,2.40
2018-12-31T10:36:53.926Z,2.57
2018-12-31T10:39:23.101Z,2.23
2018-12-31T10:41:51.957Z,7.10
2018-12-31T10:44:21.097Z,4.37
2018-12-31T10:46:49.971Z,2.43
2018-12-31T10:49:18.866Z,4.80
2018-12-31T10:51:47.715Z,5.07
2018-12-31T10:54:16.573Z,3.53
2018-12-31T10:56:45.401Z,2.63
2018-12-31T10:59:14.560Z,3.57
2018-12-31T11:01:43.432Z,2.50
2018-12-31T11:04:12.701Z,2.10
2018-12-31T11:06:41.895Z,3.27
2018-12-31T11:09:10.793Z,1.70
2018-12-31T11:11:39.916Z,1.80
2018-12-31T11:14:08.769Z,3.03
2018-12-31T11:16:37.641Z,3.30
2018-12-31T11:19:06.590Z,3.13
2018-12-31T11:21:35.546Z,1.90
2018-12-31T11:24:04.473Z,2.77
2018-12-31T11:26:33.364Z,3.37
2018-12-31T11:29:02.239Z,3.20
2018-12-31T11:31:31.426Z,3.17
2018-12-31T11:34:00.318Z,2.73
2018-12-31T11:36:29.181Z,3.87
2018-12-31T11:38:58.052Z,3.87
2018-12-31T11:41:27.284Z,3.20
2018-12-31T11:43:56.151Z,4.73
2018-12-31T11:46:25.097Z,5.77
2018-12-31T11:48:53.946Z,4.70
2018-12-31T11:51:26.428Z,4.13
2018-12-31T11:53:55.619Z,4.40
2018-12-31T11:56:24.926Z,6.63
2018-12-31T11:58:53.786Z,10.13
2018-12-31T12:01:23.116Z,5.50
2018-12-31T12:03:52.000Z,4.97
2018-12-31T12:06:21.190Z,3.73
2018-12-31T12:08:50.322Z,4.83
2018-12-31T12:11:19.284Z,4.10
2018-12-31T12:13:48.133Z,4.40
2018-12-31T12:16:17.033Z,4.57
2018-12-31T12:18:46.262Z,2.87
2018-12-31T12:21:15.192Z,3.70
2018-12-31T12:23:44.095Z,4.53
2018-12-31T12:26:12.983Z,3.60
2018-12-31T12:28:41.914Z,5.17
2018-12-31T12:31:11.113Z,5.20
2018-12-31T12:33:40.152Z,3.13
2018-12-31T12:36:09.029Z,4.43
2018-12-31T12:38:37.873Z,3.73
2018-12-31T12:41:07.067Z,3.60
2018-12-31T12:43:36.265Z,4.73
2018-12-31T12:46:05.157Z,3.50
2018-12-31T12:48:34.032Z,2.93
2018-12-31T12:51:22.902Z,8.57
2018-12-31T12:53:52.101Z,3.67
2018-12-31T12:56:21.295Z,4.60
2018-12-31T12:58:50.482Z,6.97
2018-12-31T13:01:19.651Z,7.80
2018-12-31T13:03:48.532Z,7.00
2018-12-31T13:06:17.779Z,4.00
2018-12-31T13:08:46.637Z,6.20
2018-12-31T13:11:15.794Z,6.60
2018-12-31T13:13:44.691Z,6.33
2018-12-31T13:16:13.582Z,7.43
2018-12-31T13:18:42.431Z,8.00
2018-12-31T13:21:11.315Z,12.97
2018-12-31T13:23:40.434Z,9.27
2018-12-31T13:26:09.593Z,6.17
2018-12-31T13:28:38.464Z,8.90
2018-12-31T13:31:07.350Z,6.77
2018-12-31T13:33:37.287Z,5.33
2018-12-31T13:36:06.483Z,5.73
2018-12-31T13:38:35.347Z,5.27
2018-12-31T13:41:04.228Z,5.10
2018-12-31T13:43:33.112Z,7.57
2018-12-31T13:46:03.451Z,6.10
2018-12-31T13:48:30.844Z,5.23
2018-12-31T13:50:59.829Z,6.53
2018-12-31T13:53:29.128Z,5.37
2018-12-31T13:55:58.309Z,4.90
2018-12-31T13:58:27.148Z,5.23
2018-12-31T14:00:56.095Z,5.73
2018-12-31T14:03:24.985Z,4.93
2018-12-31T14:05:54.178Z,6.40
2018-12-31T14:08:23.042Z,6.10
2018-12-31T14:10:52.278Z,5.87
2018-12-31T14:13:21.189Z,6.00
2018-12-31T14:15:50.379Z,7.03
2018-12-31T14:18:19.535Z,9.03
2018-12-31T14:20:48.695Z,6.07
2018-12-31T14:23:17.862Z,7.03
2018-12-31T14:25:46.887Z,6.40
2018-12-31T14:28:15.766Z,5.90
2018-12-31T14:30:44.657Z,8.07
2018-12-31T14:33:13.895Z,7.03
2018-12-31T14:35:45.989Z,9.37
2018-12-31T14:38:12.835Z,8.77
2018-12-31T14:40:41.999Z,6.83
2018-12-31T14:43:11.191Z,5.37
2018-12-31T14:45:40.100Z,5.43
2018-12-31T14:48:08.971Z,5.33
2018-12-31T14:50:37.844Z,4.83
2018-12-31T14:53:07.081Z,5.50
2018-12-31T14:55:35.973Z,5.97
2018-12-31T14:58:04.897Z,7.43
2018-12-31T15:00:34.239Z,5.40
2018-12-31T15:03:03.425Z,10.97
2018-12-31T15:05:32.304Z,3.77
2018-12-31T15:08:01.215Z,4.70
2018-12-31T15:10:30.056Z,3.83
2018-12-31T15:12:59.178Z,14.63
2018-12-31T15:15:28.037Z,21.43
2018-12-31T15:17:57.274Z,13.87
2018-12-31T15:20:26.471Z,11.03
2018-12-31T15:22:55.356Z,7.67
2018-12-31T15:25:24.246Z,5.40
2018-12-31T15:27:53.416Z,4.57
2018-12-31T15:30:22.664Z,6.60
2018-12-31T15:32:52.038Z,4.93
2018-12-31T15:35:21.446Z,6.33
2018-12-31T15:37:50.358Z,9.90
2018-12-31T15:40:19.462Z,8.57
2018-12-31T15:42:48.338Z,7.07
2018-12-31T15:45:17.226Z,5.23
2018-12-31T15:47:46.071Z,6.17
2018-12-31T15:50:15.216Z,6.07
2018-12-31T15:52:44.086Z,6.57
2018-12-31T15:55:13.436Z,10.47
2018-12-31T15:57:42.368Z,9.03
2018-12-31T16:00:11.761Z,12.67
2018-12-31T16:02:40.695Z,16.30
2018-12-31T16:05:09.564Z,18.47
2018-12-31T16:07:45.592Z,10.20
2018-12-31T16:10:07.939Z,10.80
2018-12-31T16:12:37.226Z,8.93
2018-12-31T16:15:07.151Z,7.93
2018-12-31T16:17:36.160Z,8.93
2018-12-31T16:20:05.428Z,8.93
2018-12-31T16:22:34.299Z,8.63
2018-12-31T16:25:03.193Z,9.47
2018-12-31T16:27:32.080Z,9.00
2018-12-31T16:30:00.988Z,8.80
2018-12-31T16:32:29.860Z,12.03
2018-12-31T16:34:59.092Z,7.63
2018-12-31T16:37:28.270Z,11.67
2018-12-31T16:39:57.142Z,8.87
2018-12-31T16:43:04.526Z,10.97
2018-12-31T16:45:12.257Z,11.63
2018-12-31T16:47:41.117Z,13.00
2018-12-31T16:50:10.041Z,13.83
2018-12-31T16:52:39.244Z,15.40
2018-12-31T16:57:42.767Z,21.57
2018-12-31T17:00:11.931Z,24.67
2018-12-31T17:02:41.285Z,26.67
2018-12-31T17:05:10.221Z,22.93
2018-12-31T17:07:39.176Z,24.97
2018-12-31T17:10:09.236Z,21.33
2018-12-31T17:12:38.422Z,24.80
2018-12-31T17:15:07.621Z,20.30
2018-12-31T17:17:36.835Z,15.67
2018-12-31T17:20:06.223Z,15.30
2018-12-31T17:22:35.425Z,16.70
2018-12-31T17:25:04.609Z,14.50
2018-12-31T17:27:33.609Z,13.50
2018-12-31T17:30:02.474Z,11.60
2018-12-31T17:32:31.787Z,12.70
2018-12-31T17:35:00.626Z,11.43
2018-12-31T17:37:29.588Z,11.57
2018-12-31T17:39:58.432Z,12.83
2018-12-31T17:42:27.650Z,15.53
2018-12-31T17:44:56.505Z,17.93
2018-12-31T17:47:26.034Z,16.53
2018-12-31T17:49:54.975Z,15.80
2018-12-31T17:52:23.827Z,14.80
2018-12-31T17:54:53.126Z,13.03
2018-12-31T17:57:22.013Z,12.63
2018-12-31T17:59:50.858Z,11.63
2018-12-31T18:02:19.770Z,11.93
2018-12-31T18:04:48.779Z,12.67
2018-12-31T18:07:17.705Z,16.50
2018-12-31T18:09:46.558Z,18.43
2018-12-31T18:12:15.994Z,14.27
2018-12-31T18:14:45.146Z,13.57
2018-12-31T18:17:14.356Z,13.10
2018-12-31T18:19:43.245Z,10.30
2018-12-31T18:22:12.222Z,12.47
2018-12-31T18:24:41.344Z,11.13
2018-12-31T18:27:10.582Z,11.33
2018-12-31T18:29:39.719Z,14.87
2018-12-31T18:32:09.832Z,16.73
2018-12-31T18:34:39.183Z,14.87
2018-12-31T18:37:08.125Z,18.87
2018-12-31T18:39:37.273Z,16.93
2018-12-31T18:42:06.510Z,20.03
2018-12-31T18:44:35.699Z,31.63
2018-12-31T18:47:04.906Z,20.43
2018-12-31T18:49:33.790Z,19.50
2018-12-31T18:52:02.995Z,21.07
2018-12-31T18:54:32.184Z,18.67
2018-12-31T18:57:01.132Z,17.93
2018-12-31T18:59:30.319Z,17.90
2018-12-31T19:01:59.622Z,17.93
2018-12-31T19:04:28.490Z,19.03
2018-12-31T19:06:57.654Z,20.60
2018-12-31T19:09:26.521Z,16.67
2018-12-31T19:11:55.371Z,24.67
2018-12-31T19:14:24.515Z,21.27
2018-12-31T19:16:53.375Z,19.43
2018-12-31T19:19:22.683Z,16.57
2018-12-31T19:21:51.931Z,22.70
2018-12-31T19:24:21.411Z,17.67
2018-12-31T19:26:50.259Z,32.67
2018-12-31T19:29:19.490Z,35.23
2018-12-31T19:31:48.332Z,21.07
2018-12-31T19:34:17.228Z,17.93
2018-12-31T19:36:46.141Z,18.37
2018-12-31T19:39:15.003Z,17.20
2018-12-31T19:41:43.844Z,19.13
2018-12-31T19:44:12.792Z,15.67
2018-12-31T19:46:41.920Z,16.77
2018-12-31T19:49:10.810Z,16.97
2018-12-31T19:51:39.657Z,16.03
2018-12-31T19:54:08.516Z,14.60
2018-12-31T19:56:37.484Z,14.03
2018-12-31T19:59:06.338Z,12.83
2018-12-31T20:01:35.203Z,13.97
2018-12-31T20:04:04.780Z,12.27
2018-12-31T20:06:33.636Z,20.03
2018-12-31T20:09:02.855Z,17.33
2018-12-31T20:11:31.820Z,15.20
2018-12-31T20:14:01.019Z,14.93
2018-12-31T20:16:30.220Z,15.90
2018-12-31T20:18:59.141Z,15.93
2018-12-31T20:24:06.504Z,27.73
2018-12-31T20:26:35.384Z,28.63
2018-12-31T20:29:04.699Z,31.53
2018-12-31T20:31:33.554Z,29.13
2018-12-31T20:34:02.450Z,26.13
2018-12-31T20:36:31.344Z,23.43
2018-12-31T20:39:00.697Z,21.17
2018-12-31T20:41:29.638Z,31.90
2018-12-31T20:44:00.348Z,100.17
2018-12-31T20:46:27.776Z,95.47
2018-12-31T20:48:56.744Z,122.50
2018-12-31T20:51:25.603Z,78.73
2018-12-31T20:53:54.468Z,52.43
2018-12-31T20:56:23.312Z,117.20
2018-12-31T20:58:53.786Z,39.60
2018-12-31T21:01:23.059Z,30.43
2018-12-31T21:03:51.926Z,25.97
2018-12-31T21:06:21.103Z,21.90
2018-12-31T21:08:50.300Z,23.30
2018-12-31T21:11:19.156Z,26.93
2018-12-31T21:13:48.382Z,22.60
2018-12-31T21:16:17.603Z,22.97
2018-12-31T21:18:46.623Z,18.90
2018-12-31T21:21:16.697Z,16.37
2018-12-31T21:23:44.332Z,17.10
2018-12-31T21:26:13.192Z,17.10
2018-12-31T21:28:42.109Z,17.33
2018-12-31T21:31:10.958Z,16.67
2018-12-31T21:33:39.835Z,18.10
2018-12-31T21:36:08.728Z,17.90
2018-12-31T21:38:37.566Z,18.47
2018-12-31T21:41:06.782Z,18.97
2018-12-31T21:43:35.972Z,18.57
2018-12-31T21:46:04.874Z,22.20
2018-12-31T21:48:33.812Z,18.57
2018-12-31T21:51:02.672Z,18.03
2018-12-31T21:53:31.547Z,20.10
2018-12-31T21:56:00.521Z,20.27
2018-12-31T21:58:29.489Z,22.73
2018-12-31T22:00:58.367Z,25.87
2018-12-31T22:03:27.356Z,24.17
2018-12-31T22:05:56.232Z,21.70
2018-12-31T22:08:25.266Z,24.20
2018-12-31T22:10:54.137Z,42.77
2018-12-31T22:13:23.139Z,25.47
2018-12-31T22:15:52.345Z,26.27
2018-12-31T22:18:21.574Z,28.53
2018-12-31T22:20:50.944Z,19.47
2018-12-31T22:23:20.090Z,25.33
2018-12-31T22:25:49.004Z,19.40
2018-12-31T22:28:18.225Z,23.87
2018-12-31T22:30:47.520Z,20.27
2018-12-31T22:33:16.684Z,21.73
2018-12-31T22:35:45.568Z,26.40
2018-12-31T22:38:14.435Z,33.07
2018-12-31T22:40:43.286Z,22.07
2018-12-31T22:43:12.135Z,19.17
2018-12-31T22:45:41.368Z,19.07
2018-12-31T22:48:10.565Z,20.27
2018-12-31T22:50:39.435Z,28.80
2018-12-31T22:53:08.641Z,28.90
2018-12-31T22:55:37.548Z,18.83
2018-12-31T22:58:06.400Z,25.47
2018-12-31T23:00:36.725Z,39.17
2018-12-31T23:03:04.104Z,41.17
2018-12-31T23:05:34.522Z,55.10
2018-12-31T23:08:03.391Z,75.30
2018-12-31T23:10:32.616Z,419.90
2018-12-31T23:13:01.804Z,416.87
2018-12-31T23:15:31.330Z,538.33
2018-12-31T23:18:01.219Z,483.77
2018-12-31T23:20:30.070Z,436.43
2018-12-31T23:22:59.027Z,420.30
2018-12-31T23:25:27.856Z,380.17
2018-12-31T23:27:56.742Z,340.67
2018-12-31T23:30:25.916Z,286.43
2018-12-31T23:32:54.738Z,163.93
2018-12-31T23:35:23.606Z,170.53
2018-12-31T23:37:52.845Z,118.50
2018-12-31T23:40:22.003Z,83.57
2018-12-31T23:42:50.840Z,83.33
2018-12-31T23:45:20.012Z,109.47
2018-12-31T23:47:49.217Z,151.10
2018-12-31T23:50:18.107Z,106.23
2018-12-31T23:52:47.299Z,127.43
2018-12-31T23:55:16.177Z,71.73
2018-12-31T23:57:45.039Z,61.07
